Main page
METAR-TAF:

METAR-TAF

Airports :

Alta Airport

Alta, Norway

latitude: 69-59N, longitude: 023-22E, elevation: 0 m

Current weather observation

The report was made 23 minutes ago, at 16:50 UTC
Wind 8 kt from the North/Northeast
Temperature 12°C
Humidity 62%
Pressure 1010 hPa
Visibility 10 km or more
no clouds below 1500 m and no cumulonimbus

METAR: ENAT 211650Z 02008KT CAVOK 12/05 Q1010 RMK WIND 700FT 36009KT

Time: 19:13 (17:13 UTC)

Forecast

The report was made 3 hours and 13 minutes ago, at 14:00 UTC
Forecast valid from 21 at 15 UTC to 21 at 22 UTC
Wind 12 kt from the North
Visibility 10 km or more
Few clouds at a height of 2500 ft
Broken clouds at a height of 3500 ft

TAF: ENAT 211400Z 2115/2122 01012KT 9999 FEW025 BKN035

Weather observations and forecasts of more than 4000 airports (METAR and TAF reports).

The available stations are represented by yellow and red dots on the map.

Hover mouse over dot to see the name of the station.

Then click to see weather observations and forecasts.

To change the map : click on the green buttons with a black cross to zoom in, on the green button with a dash to zoom out, or on the green arrows for adjacent maps.


METAR-TAF: